sensor_id;sensor_type;location;lat;lon;timestamp;pressure;altitude;pressure_sealevel;temperature;humidity
56568;BME280;42456;49.956;20.004;2023-06-10T00:01:45;98037.88;;;16.00;91.15
56568;BME280;42456;49.956;20.004;2023-06-10T00:04:14;98036.89;;;16.01;91.45
56568;BME280;42456;49.956;20.004;2023-06-10T00:06:44;98034.27;;;16.03;91.69
56568;BME280;42456;49.956;20.004;2023-06-10T00:09:11;98031.24;;;16.03;91.87
56568;BME280;42456;49.956;20.004;2023-06-10T00:11:37;98034.59;;;16.04;91.66
56568;BME280;42456;49.956;20.004;2023-06-10T00:14:04;98036.06;;;16.04;91.91
56568;BME280;42456;49.956;20.004;2023-06-10T00:16:32;98038.23;;;16.03;91.95
56568;BME280;42456;49.956;20.004;2023-06-10T00:19:02;98038.45;;;16.02;91.76
56568;BME280;42456;49.956;20.004;2023-06-10T00:21:32;98031.86;;;16.01;92.05
56568;BME280;42456;49.956;20.004;2023-06-10T00:24:04;98034.81;;;16.02;91.97
56568;BME280;42456;49.956;20.004;2023-06-10T00:26:32;98034.34;;;16.03;92.24
56568;BME280;42456;49.956;20.004;2023-06-10T00:28:59;98037.84;;;16.04;92.10
56568;BME280;42456;49.956;20.004;2023-06-10T00:31:26;98038.79;;;16.05;92.34
56568;BME280;42456;49.956;20.004;2023-06-10T00:33:53;98042.69;;;16.07;92.68
56568;BME280;42456;49.956;20.004;2023-06-10T00:36:20;98036.96;;;16.08;92.64
56568;BME280;42456;49.956;20.004;2023-06-10T00:38:47;98037.50;;;16.07;92.40
56568;BME280;42456;49.956;20.004;2023-06-10T00:41:14;98037.16;;;16.05;92.51
56568;BME280;42456;49.956;20.004;2023-06-10T00:43:41;98043.21;;;16.06;92.55
56568;BME280;42456;49.956;20.004;2023-06-10T00:46:08;98043.07;;;16.07;92.45
56568;BME280;42456;49.956;20.004;2023-06-10T00:48:36;98043.85;;;16.07;92.68
56568;BME280;42456;49.956;20.004;2023-06-10T00:51:05;98049.27;;;16.08;92.97
56568;BME280;42456;49.956;20.004;2023-06-10T00:53:32;98051.46;;;16.08;92.78
56568;BME280;42456;49.956;20.004;2023-06-10T00:55:59;98051.55;;;16.09;92.96
56568;BME280;42456;49.956;20.004;2023-06-10T00:58:26;98056.84;;;16.10;93.15
56568;BME280;42456;49.956;20.004;2023-06-10T01:00:53;98059.48;;;16.12;93.45
56568;BME280;42456;49.956;20.004;2023-06-10T01:03:20;98056.64;;;16.13;93.13
56568;BME280;42456;49.956;20.004;2023-06-10T01:06:02;98059.15;;;16.16;93.08
56568;BME280;42456;49.956;20.004;2023-06-10T01:11:48;98056.79;;;16.19;93.72
56568;BME280;42456;49.956;20.004;2023-06-10T01:14:17;98056.80;;;16.20;93.52
56568;BME280;42456;49.956;20.004;2023-06-10T01:16:44;98057.35;;;16.21;93.75
56568;BME280;42456;49.956;20.004;2023-06-10T01:19:12;98052.84;;;16.21;93.55
56568;BME280;42456;49.956;20.004;2023-06-10T01:21:44;98053.35;;;16.23;93.71
56568;BME280;42456;49.956;20.004;2023-06-10T01:24:15;98051.94;;;16.23;93.70
56568;BME280;42456;49.956;20.004;2023-06-10T01:26:48;98053.03;;;16.22;93.47
56568;BME280;42456;49.956;20.004;2023-06-10T01:29:28;98050.48;;;16.22;93.41
56568;BME280;42456;49.956;20.004;2023-06-10T01:32:27;98052.87;;;16.23;93.57
56568;BME280;42456;49.956;20.004;2023-06-10T01:34:57;98055.22;;;16.24;93.75
56568;BME280;42456;49.956;20.004;2023-06-10T01:37:24;98061.70;;;16.22;93.85
56568;BME280;42456;49.956;20.004;2023-06-10T01:39:57;98060.15;;;16.21;94.07
56568;BME280;42456;49.956;20.004;2023-06-10T01:42:25;98060.54;;;16.22;94.12
56568;BME280;42456;49.956;20.004;2023-06-10T01:44:52;98059.84;;;16.22;94.08
56568;BME280;42456;49.956;20.004;2023-06-10T01:47:19;98061.63;;;16.23;94.09
56568;BME280;42456;49.956;20.004;2023-06-10T01:49:46;98058.93;;;16.23;94.26
56568;BME280;42456;49.956;20.004;2023-06-10T01:52:13;98052.50;;;16.24;94.27
56568;BME280;42456;49.956;20.004;2023-06-10T01:54:40;98054.98;;;16.24;94.19
56568;BME280;42456;49.956;20.004;2023-06-10T01:57:07;98055.15;;;16.25;94.34
56568;BME280;42456;49.956;20.004;2023-06-10T01:59:33;98053.66;;;16.23;94.19
56568;BME280;42456;49.956;20.004;2023-06-10T02:02:01;98051.77;;;16.22;94.34
56568;BME280;42456;49.956;20.004;2023-06-10T02:04:27;98055.98;;;16.22;94.52
56568;BME280;42456;49.956;20.004;2023-06-10T02:06:54;98059.98;;;16.21;94.28
56568;BME280;42456;49.956;20.004;2023-06-10T02:09:22;98056.83;;;16.22;94.48
56568;BME280;42456;49.956;20.004;2023-06-10T02:11:49;98062.13;;;16.24;94.50
56568;BME280;42456;49.956;20.004;2023-06-10T02:14:17;98057.86;;;16.26;94.63
56568;BME280;42456;49.956;20.004;2023-06-10T02:16:44;98059.29;;;16.27;94.93
56568;BME280;42456;49.956;20.004;2023-06-10T02:19:13;98059.85;;;16.29;94.75
56568;BME280;42456;49.956;20.004;2023-06-10T02:21:40;98059.77;;;16.29;94.95
56568;BME280;42456;49.956;20.004;2023-06-10T02:24:07;98058.86;;;16.31;95.01
56568;BME280;42456;49.956;20.004;2023-06-10T02:26:35;98060.35;;;16.32;95.24
56568;BME280;42456;49.956;20.004;2023-06-10T02:29:02;98059.96;;;16.32;95.25
56568;BME280;42456;49.956;20.004;2023-06-10T02:31:29;98062.13;;;16.32;95.39
56568;BME280;42456;49.956;20.004;2023-06-10T02:33:56;98064.39;;;16.33;95.40
56568;BME280;42456;49.956;20.004;2023-06-10T02:36:23;98063.14;;;16.33;95.42
56568;BME280;42456;49.956;20.004;2023-06-10T02:38:51;98065.10;;;16.34;95.64
56568;BME280;42456;49.956;20.004;2023-06-10T02:41:18;98066.27;;;16.34;95.30
56568;BME280;42456;49.956;20.004;2023-06-10T02:43:44;98067.03;;;16.34;95.60
56568;BME280;42456;49.956;20.004;2023-06-10T02:46:11;98069.53;;;16.34;95.77
56568;BME280;42456;49.956;20.004;2023-06-10T02:48:45;98067.42;;;16.35;95.74
56568;BME280;42456;49.956;20.004;2023-06-10T02:51:13;98064.64;;;16.35;95.86
56568;BME280;42456;49.956;20.004;2023-06-10T02:53:39;98063.72;;;16.36;95.79
56568;BME280;42456;49.956;20.004;2023-06-10T02:56:06;98067.14;;;16.36;96.02
56568;BME280;42456;49.956;20.004;2023-06-10T02:58:33;98068.54;;;16.36;95.89
56568;BME280;42456;49.956;20.004;2023-06-10T03:01:00;98068.38;;;16.36;96.14
56568;BME280;42456;49.956;20.004;2023-06-10T03:03:27;98075.75;;;16.36;96.19
56568;BME280;42456;49.956;20.004;2023-06-10T03:05:54;98079.95;;;16.37;96.24
56568;BME280;42456;49.956;20.004;2023-06-10T03:08:21;98087.39;;;16.38;96.21
56568;BME280;42456;49.956;20.004;2023-06-10T03:10:48;98086.70;;;16.38;96.23
56568;BME280;42456;49.956;20.004;2023-06-10T03:13:15;98087.68;;;16.36;96.45
56568;BME280;42456;49.956;20.004;2023-06-10T03:15:42;98088.92;;;16.36;96.47
56568;BME280;42456;49.956;20.004;2023-06-10T03:18:08;98087.69;;;16.36;96.44
56568;BME280;42456;49.956;20.004;2023-06-10T03:20:35;98089.77;;;16.35;96.39
56568;BME280;42456;49.956;20.004;2023-06-10T03:23:04;98090.02;;;16.36;96.41
56568;BME280;42456;49.956;20.004;2023-06-10T03:25:33;98094.45;;;16.37;96.78
56568;BME280;42456;49.956;20.004;2023-06-10T03:28:00;98096.08;;;16.37;96.84
56568;BME280;42456;49.956;20.004;2023-06-10T03:30:30;98097.73;;;16.39;96.87
56568;BME280;42456;49.956;20.004;2023-06-10T03:32:56;98099.04;;;16.39;96.96
56568;BME280;42456;49.956;20.004;2023-06-10T03:35:23;98096.34;;;16.39;97.09
56568;BME280;42456;49.956;20.004;2023-06-10T03:37:50;98093.38;;;16.40;96.79
56568;BME280;42456;49.956;20.004;2023-06-10T03:40:17;98094.49;;;16.41;97.01
56568;BME280;42456;49.956;20.004;2023-06-10T03:42:44;98097.14;;;16.42;97.15
56568;BME280;42456;49.956;20.004;2023-06-10T03:45:11;98100.73;;;16.43;97.12
56568;BME280;42456;49.956;20.004;2023-06-10T03:47:39;98098.05;;;16.44;97.20
56568;BME280;42456;49.956;20.004;2023-06-10T03:50:08;98097.11;;;16.44;97.16
56568;BME280;42456;49.956;20.004;2023-06-10T03:52:35;98096.59;;;16.44;97.15
56568;BME280;42456;49.956;20.004;2023-06-10T03:55:03;98098.39;;;16.46;97.20
56568;BME280;42456;49.956;20.004;2023-06-10T03:57:30;98096.83;;;16.45;96.98
56568;BME280;42456;49.956;20.004;2023-06-10T03:59:57;98101.59;;;16.48;97.34
56568;BME280;42456;49.956;20.004;2023-06-10T04:02:24;98101.52;;;16.49;97.29
56568;BME280;42456;49.956;20.004;2023-06-10T04:04:52;98102.06;;;16.49;97.30
56568;BME280;42456;49.956;20.004;2023-06-10T04:07:18;98104.88;;;16.51;97.25
56568;BME280;42456;49.956;20.004;2023-06-10T04:09:47;98107.38;;;16.52;97.39
56568;BME280;42456;49.956;20.004;2023-06-10T04:12:14;98113.98;;;16.54;97.36
56568;BME280;42456;49.956;20.004;2023-06-10T04:14:41;98116.24;;;16.54;97.38
56568;BME280;42456;49.956;20.004;2023-06-10T04:17:08;98115.69;;;16.54;97.27
56568;BME280;42456;49.956;20.004;2023-06-10T04:19:36;98119.86;;;16.53;97.31
56568;BME280;42456;49.956;20.004;2023-06-10T04:22:04;98120.02;;;16.53;97.33
56568;BME280;42456;49.956;20.004;2023-06-10T04:24:31;98115.31;;;16.54;97.50
56568;BME280;42456;49.956;20.004;2023-06-10T04:26:58;98116.77;;;16.53;97.32
56568;BME280;42456;49.956;20.004;2023-06-10T04:29:25;98121.29;;;16.55;97.33
56568;BME280;42456;49.956;20.004;2023-06-10T04:31:52;98120.21;;;16.56;97.49
56568;BME280;42456;49.956;20.004;2023-06-10T04:34:19;98117.33;;;16.54;97.18
56568;BME280;42456;49.956;20.004;2023-06-10T04:36:46;98120.27;;;16.53;97.32
56568;BME280;42456;49.956;20.004;2023-06-10T04:39:14;98121.41;;;16.52;97.29
56568;BME280;42456;49.956;20.004;2023-06-10T04:41:43;98120.27;;;16.53;97.39
56568;BME280;42456;49.956;20.004;2023-06-10T04:44:10;98119.17;;;16.54;97.31
56568;BME280;42456;49.956;20.004;2023-06-10T04:46:38;98125.55;;;16.54;97.31
56568;BME280;42456;49.956;20.004;2023-06-10T04:49:05;98122.31;;;16.56;97.00
56568;BME280;42456;49.956;20.004;2023-06-10T04:51:32;98130.27;;;16.60;97.04
56568;BME280;42456;49.956;20.004;2023-06-10T04:53:59;98131.77;;;16.63;96.76
56568;BME280;42456;49.956;20.004;2023-06-10T04:56:31;98134.20;;;16.64;96.53
56568;BME280;42456;49.956;20.004;2023-06-10T04:58:58;98135.06;;;16.65;96.68
56568;BME280;42456;49.956;20.004;2023-06-10T05:01:26;98138.49;;;16.67;96.63
56568;BME280;42456;49.956;20.004;2023-06-10T05:03:54;98141.39;;;16.69;96.54
56568;BME280;42456;49.956;20.004;2023-06-10T05:06:21;98144.42;;;16.71;96.59
56568;BME280;42456;49.956;20.004;2023-06-10T05:08:48;98144.29;;;16.73;96.66
56568;BME280;42456;49.956;20.004;2023-06-10T05:11:15;98148.52;;;16.75;96.61
56568;BME280;42456;49.956;20.004;2023-06-10T05:13:42;98153.65;;;16.76;96.56
56568;BME280;42456;49.956;20.004;2023-06-10T05:16:10;98150.23;;;16.75;96.35
56568;BME280;42456;49.956;20.004;2023-06-10T05:18:37;98154.71;;;16.74;96.37
56568;BME280;42456;49.956;20.004;2023-06-10T05:21:04;98157.98;;;16.74;96.39
56568;BME280;42456;49.956;20.004;2023-06-10T05:23:31;98159.13;;;16.74;96.23
56568;BME280;42456;49.956;20.004;2023-06-10T05:25:58;98165.55;;;16.72;96.06
56568;BME280;42456;49.956;20.004;2023-06-10T05:28:26;98164.67;;;16.70;96.12
56568;BME280;42456;49.956;20.004;2023-06-10T05:30:52;98156.20;;;16.69;96.25
56568;BME280;42456;49.956;20.004;2023-06-10T05:33:19;98158.41;;;16.72;96.49
56568;BME280;42456;49.956;20.004;2023-06-10T05:35:47;98160.16;;;16.76;96.24
56568;BME280;42456;49.956;20.004;2023-06-10T05:38:13;98160.15;;;16.82;96.26
56568;BME280;42456;49.956;20.004;2023-06-10T05:40:41;98163.15;;;16.86;95.96
56568;BME280;42456;49.956;20.004;2023-06-10T05:43:08;98167.21;;;16.90;95.55
56568;BME280;42456;49.956;20.004;2023-06-10T05:45:37;98165.47;;;16.93;95.44
56568;BME280;42456;49.956;20.004;2023-06-10T05:48:04;98169.80;;;16.99;95.30
56568;BME280;42456;49.956;20.004;2023-06-10T05:50:31;98169.38;;;17.02;95.08
56568;BME280;42456;49.956;20.004;2023-06-10T05:53:05;98170.81;;;17.07;94.93
56568;BME280;42456;49.956;20.004;2023-06-10T05:55:33;98177.24;;;17.13;94.82
56568;BME280;42456;49.956;20.004;2023-06-10T05:58:01;98176.59;;;17.17;94.41
56568;BME280;42456;49.956;20.004;2023-06-10T06:00:28;98174.52;;;17.20;94.43
56568;BME280;42456;49.956;20.004;2023-06-10T06:02:55;98177.58;;;17.23;94.45
56568;BME280;42456;49.956;20.004;2023-06-10T06:05:24;98177.67;;;17.27;94.12
56568;BME280;42456;49.956;20.004;2023-06-10T06:07:51;98174.70;;;17.32;94.20
56568;BME280;42456;49.956;20.004;2023-06-10T06:10:19;98176.61;;;17.43;94.17
56568;BME280;42456;49.956;20.004;2023-06-10T06:12:46;98174.65;;;17.58;94.08
56568;BME280;42456;49.956;20.004;2023-06-10T06:15:13;98175.70;;;17.73;93.76
56568;BME280;42456;49.956;20.004;2023-06-10T06:17:40;98176.41;;;17.85;92.85
56568;BME280;42456;49.956;20.004;2023-06-10T06:20:07;98175.48;;;17.97;91.53
56568;BME280;42456;49.956;20.004;2023-06-10T06:22:34;98174.79;;;18.11;91.37
56568;BME280;42456;49.956;20.004;2023-06-10T06:25:01;98180.38;;;18.24;91.06
56568;BME280;42456;49.956;20.004;2023-06-10T06:27:29;98177.92;;;18.40;90.66
56568;BME280;42456;49.956;20.004;2023-06-10T06:29:56;98181.03;;;18.53;90.46
56568;BME280;42456;49.956;20.004;2023-06-10T06:32:25;98181.20;;;18.59;90.07
56568;BME280;42456;49.956;20.004;2023-06-10T06:34:54;98187.13;;;18.59;89.19
56568;BME280;42456;49.956;20.004;2023-06-10T06:37:22;98188.20;;;18.58;88.43
56568;BME280;42456;49.956;20.004;2023-06-10T06:39:51;98199.42;;;18.60;87.59
56568;BME280;42456;49.956;20.004;2023-06-10T06:42:18;98197.90;;;18.67;87.08
56568;BME280;42456;49.956;20.004;2023-06-10T06:44:48;98197.39;;;18.77;87.46
56568;BME280;42456;49.956;20.004;2023-06-10T06:47:15;98202.75;;;18.97;86.33
56568;BME280;42456;49.956;20.004;2023-06-10T06:49:47;98204.75;;;19.16;86.48
56568;BME280;42456;49.956;20.004;2023-06-10T06:52:15;98207.33;;;19.38;85.78
56568;BME280;42456;49.956;20.004;2023-06-10T06:54:42;98202.52;;;19.56;85.23
56568;BME280;42456;49.956;20.004;2023-06-10T06:57:09;98206.09;;;19.84;84.03
56568;BME280;42456;49.956;20.004;2023-06-10T06:59:36;98205.01;;;19.99;83.40
56568;BME280;42456;49.956;20.004;2023-06-10T07:02:03;98210.52;;;20.08;82.77
56568;BME280;42456;49.956;20.004;2023-06-10T07:04:30;98214.52;;;20.16;82.26
56568;BME280;42456;49.956;20.004;2023-06-10T07:06:57;98217.00;;;20.24;81.41
56568;BME280;42456;49.956;20.004;2023-06-10T07:09:24;98216.06;;;20.27;80.07
56568;BME280;42456;49.956;20.004;2023-06-10T07:11:51;98218.21;;;20.41;80.02
56568;BME280;42456;49.956;20.004;2023-06-10T07:14:18;98224.77;;;20.65;79.64
56568;BME280;42456;49.956;20.004;2023-06-10T07:16:45;98228.63;;;20.82;77.69
56568;BME280;42456;49.956;20.004;2023-06-10T07:19:13;98229.25;;;20.79;76.76
56568;BME280;42456;49.956;20.004;2023-06-10T07:21:40;98232.88;;;20.68;76.43
56568;BME280;42456;49.956;20.004;2023-06-10T07:24:07;98231.19;;;20.62;75.87
56568;BME280;42456;49.956;20.004;2023-06-10T07:26:34;98232.37;;;20.59;76.15
56568;BME280;42456;49.956;20.004;2023-06-10T07:29:01;98231.20;;;20.60;75.90
56568;BME280;42456;49.956;20.004;2023-06-10T07:31:28;98232.65;;;20.68;75.85
56568;BME280;42456;49.956;20.004;2023-06-10T07:33:55;98231.48;;;20.72;75.72
56568;BME280;42456;49.956;20.004;2023-06-10T07:36:22;98235.66;;;20.76;75.65
56568;BME280;42456;49.956;20.004;2023-06-10T07:38:49;98236.98;;;20.79;74.61
56568;BME280;42456;49.956;20.004;2023-06-10T07:41:16;98233.32;;;20.81;74.69
56568;BME280;42456;49.956;20.004;2023-06-10T07:43:45;98240.18;;;20.82;74.46
56568;BME280;42456;49.956;20.004;2023-06-10T07:46:11;98238.53;;;20.82;74.08
56568;BME280;42456;49.956;20.004;2023-06-10T07:48:38;98235.49;;;20.80;73.79
56568;BME280;42456;49.956;20.004;2023-06-10T07:51:05;98234.77;;;20.88;74.16
56568;BME280;42456;49.956;20.004;2023-06-10T07:53:32;98238.80;;;21.00;74.32
56568;BME280;42456;49.956;20.004;2023-06-10T07:55:59;98230.34;;;21.06;74.08
56568;BME280;42456;49.956;20.004;2023-06-10T07:58:26;98231.84;;;21.18;74.19
56568;BME280;42456;49.956;20.004;2023-06-10T08:00:53;98239.96;;;21.31;74.06
56568;BME280;42456;49.956;20.004;2023-06-10T08:03:20;98236.46;;;21.43;73.70
56568;BME280;42456;49.956;20.004;2023-06-10T08:05:47;98239.10;;;21.46;72.89
56568;BME280;42456;49.956;20.004;2023-06-10T08:08:14;98239.73;;;21.44;71.85
56568;BME280;42456;49.956;20.004;2023-06-10T08:10:41;98241.74;;;21.48;72.50
56568;BME280;42456;49.956;20.004;2023-06-10T08:13:08;98239.59;;;21.55;71.42
56568;BME280;42456;49.956;20.004;2023-06-10T08:15:35;98237.84;;;21.59;71.83
56568;BME280;42456;49.956;20.004;2023-06-10T08:18:02;98239.41;;;21.70;71.61
56568;BME280;42456;49.956;20.004;2023-06-10T08:20:29;98240.31;;;21.86;71.71
56568;BME280;42456;49.956;20.004;2023-06-10T08:22:57;98234.23;;;22.04;71.42
56568;BME280;42456;49.956;20.004;2023-06-10T08:25:24;98237.73;;;22.16;71.22
56568;BME280;42456;49.956;20.004;2023-06-10T08:27:51;98237.73;;;22.25;70.67
56568;BME280;42456;49.956;20.004;2023-06-10T08:30:18;98237.64;;;22.25;69.59
56568;BME280;42456;49.956;20.004;2023-06-10T08:32:45;98245.79;;;22.23;69.23
56568;BME280;42456;49.956;20.004;2023-06-10T08:35:13;98240.33;;;22.30;69.19
56568;BME280;42456;49.956;20.004;2023-06-10T08:37:40;98239.14;;;22.39;69.80
56568;BME280;42456;49.956;20.004;2023-06-10T08:40:08;98242.88;;;22.42;70.08
56568;BME280;42456;49.956;20.004;2023-06-10T08:43:08;98242.30;;;22.44;69.61
56568;BME280;42456;49.956;20.004;2023-06-10T08:45:37;98244.69;;;22.49;68.91
56568;BME280;42456;49.956;20.004;2023-06-10T08:48:05;98245.13;;;22.54;68.69
56568;BME280;42456;49.956;20.004;2023-06-10T08:50:37;98242.44;;;22.56;68.67
56568;BME280;42456;49.956;20.004;2023-06-10T08:53:06;98242.71;;;22.53;68.31
56568;BME280;42456;49.956;20.004;2023-06-10T08:55:37;98245.45;;;22.53;68.60
56568;BME280;42456;49.956;20.004;2023-06-10T08:58:04;98245.29;;;22.54;68.47
56568;BME280;42456;49.956;20.004;2023-06-10T09:00:32;98245.49;;;22.63;68.24
56568;BME280;42456;49.956;20.004;2023-06-10T09:03:01;98241.16;;;22.72;66.92
56568;BME280;42456;49.956;20.004;2023-06-10T09:05:34;98241.64;;;22.79;67.18
56568;BME280;42456;49.956;20.004;2023-06-10T09:08:05;98243.77;;;22.90;67.14
56568;BME280;42456;49.956;20.004;2023-06-10T09:10:32;98241.23;;;23.00;66.14
56568;BME280;42456;49.956;20.004;2023-06-10T09:13:00;98239.44;;;22.97;65.96
56568;BME280;42456;49.956;20.004;2023-06-10T09:15:27;98237.45;;;23.01;66.27
56568;BME280;42456;49.956;20.004;2023-06-10T09:17:54;98238.38;;;23.13;66.18
56568;BME280;42456;49.956;20.004;2023-06-10T09:20:21;98235.89;;;23.24;65.07
56568;BME280;42456;49.956;20.004;2023-06-10T09:22:49;98231.63;;;23.33;64.85
56568;BME280;42456;49.956;20.004;2023-06-10T09:25:16;98227.42;;;23.42;64.78
56568;BME280;42456;49.956;20.004;2023-06-10T09:27:48;98233.30;;;23.42;64.08
56568;BME280;42456;49.956;20.004;2023-06-10T09:30:32;98229.73;;;23.40;63.99
56568;BME280;42456;49.956;20.004;2023-06-10T09:33:02;98234.70;;;23.37;64.04
56568;BME280;42456;49.956;20.004;2023-06-10T09:35:30;98231.52;;;23.30;63.90
56568;BME280;42456;49.956;20.004;2023-06-10T09:37:59;98236.71;;;23.15;63.51
56568;BME280;42456;49.956;20.004;2023-06-10T09:40:26;98227.41;;;23.01;64.40
56568;BME280;42456;49.956;20.004;2023-06-10T09:42:55;98230.10;;;22.93;64.56
56568;BME280;42456;49.956;20.004;2023-06-10T09:45:23;98225.54;;;22.82;64.76
56568;BME280;42456;49.956;20.004;2023-06-10T09:47:53;98233.99;;;22.69;64.63
56568;BME280;42456;49.956;20.004;2023-06-10T09:50:21;98226.60;;;22.49;64.75
56568;BME280;42456;49.956;20.004;2023-06-10T09:52:48;98226.30;;;22.40;65.30
56568;BME280;42456;49.956;20.004;2023-06-10T09:55:16;98222.48;;;22.30;65.24
56568;BME280;42456;49.956;20.004;2023-06-10T09:57:43;98226.02;;;22.19;65.92
56568;BME280;42456;49.956;20.004;2023-06-10T10:00:15;98235.95;;;22.03;65.89
56568;BME280;42456;49.956;20.004;2023-06-10T10:02:48;98239.84;;;21.87;66.22
56568;BME280;42456;49.956;20.004;2023-06-10T10:05:17;98238.64;;;21.69;66.64
56568;BME280;42456;49.956;20.004;2023-06-10T10:07:45;98240.05;;;21.55;67.06
56568;BME280;42456;49.956;20.004;2023-06-10T10:10:15;98244.81;;;21.46;67.69
56568;BME280;42456;49.956;20.004;2023-06-10T10:12:43;98243.78;;;21.34;68.71
56568;BME280;42456;49.956;20.004;2023-06-10T10:15:12;98246.81;;;21.22;69.50
56568;BME280;42456;49.956;20.004;2023-06-10T10:17:46;98242.58;;;21.11;69.85
56568;BME280;42456;49.956;20.004;2023-06-10T10:20:20;98244.98;;;21.01;70.67
56568;BME280;42456;49.956;20.004;2023-06-10T10:22:49;98245.22;;;20.98;71.04
56568;BME280;42456;49.956;20.004;2023-06-10T10:25:25;98245.38;;;20.97;71.26
56568;BME280;42456;49.956;20.004;2023-06-10T10:28:06;98252.64;;;20.98;71.26
56568;BME280;42456;49.956;20.004;2023-06-10T10:30:40;98251.07;;;21.00;71.31
56568;BME280;42456;49.956;20.004;2023-06-10T10:35:53;98248.10;;;21.01;71.10
56568;BME280;42456;49.956;20.004;2023-06-10T10:38:21;98248.33;;;21.03;71.14
56568;BME280;42456;49.956;20.004;2023-06-10T10:40:49;98242.29;;;21.07;70.76
56568;BME280;42456;49.956;20.004;2023-06-10T10:43:17;98240.54;;;21.11;70.83
56568;BME280;42456;49.956;20.004;2023-06-10T10:46:00;98256.58;;;21.10;70.52
56568;BME280;42456;49.956;20.004;2023-06-10T10:48:37;98255.58;;;21.05;70.66
56568;BME280;42456;49.956;20.004;2023-06-10T10:51:05;98246.13;;;21.01;70.66
56568;BME280;42456;49.956;20.004;2023-06-10T10:53:32;98250.76;;;20.99;71.02
56568;BME280;42456;49.956;20.004;2023-06-10T10:56:29;98249.36;;;20.95;71.26
56568;BME280;42456;49.956;20.004;2023-06-10T10:59:07;98259.66;;;20.92;71.96
56568;BME280;42456;49.956;20.004;2023-06-10T11:01:42;98265.86;;;20.84;72.04
56568;BME280;42456;49.956;20.004;2023-06-10T11:04:13;98263.48;;;20.68;72.52
56568;BME280;42456;49.956;20.004;2023-06-10T11:06:52;98258.22;;;20.56;73.06
56568;BME280;42456;49.956;20.004;2023-06-10T11:09:26;98259.86;;;20.57;73.61
56568;BME280;42456;49.956;20.004;2023-06-10T11:11:58;98259.36;;;20.65;73.88
56568;BME280;42456;49.956;20.004;2023-06-10T11:14:29;98255.73;;;20.76;74.06
56568;BME280;42456;49.956;20.004;2023-06-10T11:16:58;98258.50;;;20.89;74.15
56568;BME280;42456;49.956;20.004;2023-06-10T11:19:36;98249.73;;;21.01;74.00
56568;BME280;42456;49.956;20.004;2023-06-10T11:22:06;98244.61;;;21.12;74.09
56568;BME280;42456;49.956;20.004;2023-06-10T11:24:34;98241.58;;;21.25;74.30
56568;BME280;42456;49.956;20.004;2023-06-10T11:27:22;98239.90;;;21.42;74.28
56568;BME280;42456;49.956;20.004;2023-06-10T11:32:31;98236.98;;;21.70;73.49
56568;BME280;42456;49.956;20.004;2023-06-10T11:35:00;98235.54;;;21.78;73.59
56568;BME280;42456;49.956;20.004;2023-06-10T11:37:29;98241.59;;;21.85;73.81
56568;BME280;42456;49.956;20.004;2023-06-10T11:39:56;98237.89;;;21.78;72.78
56568;BME280;42456;49.956;20.004;2023-06-10T11:42:24;98242.92;;;21.70;72.99
56568;BME280;42456;49.956;20.004;2023-06-10T11:44:52;98245.09;;;21.63;72.49
56568;BME280;42456;49.956;20.004;2023-06-10T11:47:20;98244.67;;;21.55;73.30
56568;BME280;42456;49.956;20.004;2023-06-10T11:49:56;98250.42;;;21.48;73.16
56568;BME280;42456;49.956;20.004;2023-06-10T11:52:30;98248.26;;;21.44;72.46
56568;BME280;42456;49.956;20.004;2023-06-10T11:55:01;98247.16;;;21.43;72.56
56568;BME280;42456;49.956;20.004;2023-06-10T11:57:27;98251.41;;;21.52;71.84
56568;BME280;42456;49.956;20.004;2023-06-10T11:59:54;98244.10;;;21.58;71.30
56568;BME280;42456;49.956;20.004;2023-06-10T12:02:21;98244.61;;;21.63;71.32
56568;BME280;42456;49.956;20.004;2023-06-10T12:04:49;98245.52;;;21.68;71.25
56568;BME280;42456;49.956;20.004;2023-06-10T12:07:18;98248.09;;;21.70;71.23
56568;BME280;42456;49.956;20.004;2023-06-10T12:09:46;98253.43;;;21.66;70.45
56568;BME280;42456;49.956;20.004;2023-06-10T12:12:13;98258.61;;;21.63;70.20
56568;BME280;42456;49.956;20.004;2023-06-10T12:14:56;98249.41;;;21.59;70.17
56568;BME280;42456;49.956;20.004;2023-06-10T12:17:47;98248.91;;;21.63;69.92
56568;BME280;42456;49.956;20.004;2023-06-10T12:20:29;98246.81;;;21.77;69.80
56568;BME280;42456;49.956;20.004;2023-06-10T12:22:56;98248.48;;;21.84;68.34
56568;BME280;42456;49.956;20.004;2023-06-10T12:25:29;98255.43;;;21.85;67.93
56568;BME280;42456;49.956;20.004;2023-06-10T12:27:58;98245.27;;;21.83;67.47
56568;BME280;42456;49.956;20.004;2023-06-10T12:30:27;98250.54;;;21.82;67.77
56568;BME280;42456;49.956;20.004;2023-06-10T12:32:54;98246.25;;;21.79;67.41
56568;BME280;42456;49.956;20.004;2023-06-10T12:35:24;98246.97;;;21.74;67.01
56568;BME280;42456;49.956;20.004;2023-06-10T12:37:55;98246.23;;;21.65;67.79
56568;BME280;42456;49.956;20.004;2023-06-10T12:40:32;98248.02;;;21.56;67.51
56568;BME280;42456;49.956;20.004;2023-06-10T12:42:59;98247.44;;;21.50;67.84
56568;BME280;42456;49.956;20.004;2023-06-10T12:45:34;98248.96;;;21.45;67.91
56568;BME280;42456;49.956;20.004;2023-06-10T12:48:10;98242.09;;;21.43;68.35
56568;BME280;42456;49.956;20.004;2023-06-10T12:50:39;98241.17;;;21.51;68.91
56568;BME280;42456;49.956;20.004;2023-06-10T12:53:08;98239.59;;;21.55;68.43
56568;BME280;42456;49.956;20.004;2023-06-10T12:55:36;98232.65;;;21.61;68.55
56568;BME280;42456;49.956;20.004;2023-06-10T12:58:03;98232.90;;;21.71;68.74
56568;BME280;42456;49.956;20.004;2023-06-10T13:00:31;98234.92;;;21.76;68.29
56568;BME280;42456;49.956;20.004;2023-06-10T13:03:02;98235.64;;;21.74;67.91
56568;BME280;42456;49.956;20.004;2023-06-10T13:05:29;98232.20;;;21.75;67.74
56568;BME280;42456;49.956;20.004;2023-06-10T13:07:57;98236.48;;;21.78;67.67